sensor_id;sensor_type;location;lat;lon;timestamp;temperature;humidity
33881;DHT22;20172;47.530;10.256;2023-07-29T00:02:02;17.70;99.90
33881;DHT22;20172;47.530;10.256;2023-07-29T00:04:41;17.70;99.90
33881;DHT22;20172;47.530;10.256;2023-07-29T00:07:07;17.70;99.90
33881;DHT22;20172;47.530;10.256;2023-07-29T00:09:35;17.60;99.90
33881;DHT22;20172;47.530;10.256;2023-07-29T00:12:01;17.60;99.90
33881;DHT22;20172;47.530;10.256;2023-07-29T00:14:31;17.60;99.90
33881;DHT22;20172;47.530;10.256;2023-07-29T00:17:03;17.50;99.90
33881;DHT22;20172;47.530;10.256;2023-07-29T00:19:29;17.50;99.90
33881;DHT22;20172;47.530;10.256;2023-07-29T00:21:59;17.50;99.90
33881;DHT22;20172;47.530;10.256;2023-07-29T00:24:25;17.50;99.90
33881;DHT22;20172;47.530;10.256;2023-07-29T00:26:51;17.40;99.90
33881;DHT22;20172;47.530;10.256;2023-07-29T00:29:18;17.50;99.90
33881;DHT22;20172;47.530;10.256;2023-07-29T00:31:43;17.50;99.90
33881;DHT22;20172;47.530;10.256;2023-07-29T00:34:09;17.50;99.90
33881;DHT22;20172;47.530;10.256;2023-07-29T00:36:35;17.40;99.90
33881;DHT22;20172;47.530;10.256;2023-07-29T00:39:00;17.40;99.90
33881;DHT22;20172;47.530;10.256;2023-07-29T00:41:26;17.40;99.90
33881;DHT22;20172;47.530;10.256;2023-07-29T00:43:52;17.40;99.90
33881;DHT22;20172;47.530;10.256;2023-07-29T00:46:20;17.40;99.90
33881;DHT22;20172;47.530;10.256;2023-07-29T00:48:46;17.30;99.90
33881;DHT22;20172;47.530;10.256;2023-07-29T00:51:18;17.30;99.90
33881;DHT22;20172;47.530;10.256;2023-07-29T00:53:43;17.30;99.90
33881;DHT22;20172;47.530;10.256;2023-07-29T00:56:12;17.20;99.90
33881;DHT22;20172;47.530;10.256;2023-07-29T00:58:38;17.20;99.90
33881;DHT22;20172;47.530;10.256;2023-07-29T01:01:04;17.20;99.90
33881;DHT22;20172;47.530;10.256;2023-07-29T01:03:30;17.20;99.90
33881;DHT22;20172;47.530;10.256;2023-07-29T01:08:21;17.20;99.90
33881;DHT22;20172;47.530;10.256;2023-07-29T01:13:21;17.20;99.90
33881;DHT22;20172;47.530;10.256;2023-07-29T01:16:08;17.30;99.90
33881;DHT22;20172;47.530;10.256;2023-07-29T01:18:54;17.40;99.90
33881;DHT22;20172;47.530;10.256;2023-07-29T01:21:24;17.50;99.90
33881;DHT22;20172;47.530;10.256;2023-07-29T01:23:57;17.60;99.90
33881;DHT22;20172;47.530;10.256;2023-07-29T01:26:35;17.60;99.90
33881;DHT22;20172;47.530;10.256;2023-07-29T01:29:01;17.60;99.90
33881;DHT22;20172;47.530;10.256;2023-07-29T01:34:13;17.50;99.90
33881;DHT22;20172;47.530;10.256;2023-07-29T01:36:39;17.50;99.90
33881;DHT22;20172;47.530;10.256;2023-07-29T01:39:07;17.40;99.90
33881;DHT22;20172;47.530;10.256;2023-07-29T01:41:37;17.30;99.90
33881;DHT22;20172;47.530;10.256;2023-07-29T01:44:22;17.30;99.90
33881;DHT22;20172;47.530;10.256;2023-07-29T01:46:48;17.30;99.90
33881;DHT22;20172;47.530;10.256;2023-07-29T01:49:17;17.30;99.90
33881;DHT22;20172;47.530;10.256;2023-07-29T01:51:43;17.30;99.90
33881;DHT22;20172;47.530;10.256;2023-07-29T01:54:09;17.20;99.90
33881;DHT22;20172;47.530;10.256;2023-07-29T01:56:34;17.20;99.90
33881;DHT22;20172;47.530;10.256;2023-07-29T01:59:00;17.20;99.90
33881;DHT22;20172;47.530;10.256;2023-07-29T02:01:26;17.30;99.90
33881;DHT22;20172;47.530;10.256;2023-07-29T02:03:51;17.30;99.90
33881;DHT22;20172;47.530;10.256;2023-07-29T02:06:21;17.30;99.90
33881;DHT22;20172;47.530;10.256;2023-07-29T02:09:07;17.40;99.90
33881;DHT22;20172;47.530;10.256;2023-07-29T02:11:33;17.30;99.90
33881;DHT22;20172;47.530;10.256;2023-07-29T02:14:02;17.30;99.90
33881;DHT22;20172;47.530;10.256;2023-07-29T02:16:33;17.20;99.90
33881;DHT22;20172;47.530;10.256;2023-07-29T02:19:02;17.20;99.90
33881;DHT22;20172;47.530;10.256;2023-07-29T02:21:31;17.10;99.90
33881;DHT22;20172;47.530;10.256;2023-07-29T02:23:57;17.10;99.90
33881;DHT22;20172;47.530;10.256;2023-07-29T02:27:01;17.10;99.90
33881;DHT22;20172;47.530;10.256;2023-07-29T02:29:33;17.00;99.90
33881;DHT22;20172;47.530;10.256;2023-07-29T02:32:32;16.90;99.90
33881;DHT22;20172;47.530;10.256;2023-07-29T02:35:04;16.90;99.90
33881;DHT22;20172;47.530;10.256;2023-07-29T02:37:35;16.80;99.90
33881;DHT22;20172;47.530;10.256;2023-07-29T02:40:08;16.80;99.90
33881;DHT22;20172;47.530;10.256;2023-07-29T02:42:41;16.90;99.90
33881;DHT22;20172;47.530;10.256;2023-07-29T02:45:22;17.00;99.90
33881;DHT22;20172;47.530;10.256;2023-07-29T02:48:15;16.90;99.90
33881;DHT22;20172;47.530;10.256;2023-07-29T02:50:41;16.90;99.90
33881;DHT22;20172;47.530;10.256;2023-07-29T02:53:15;16.90;99.90
33881;DHT22;20172;47.530;10.256;2023-07-29T02:56:10;17.00;99.90
33881;DHT22;20172;47.530;10.256;2023-07-29T02:58:41;16.90;99.90
33881;DHT22;20172;47.530;10.256;2023-07-29T03:01:12;16.90;99.90
33881;DHT22;20172;47.530;10.256;2023-07-29T03:03:57;16.90;99.90
33881;DHT22;20172;47.530;10.256;2023-07-29T03:06:52;16.90;99.90
33881;DHT22;20172;47.530;10.256;2023-07-29T03:09:45;16.80;99.90
33881;DHT22;20172;47.530;10.256;2023-07-29T03:12:25;16.80;99.90
33881;DHT22;20172;47.530;10.256;2023-07-29T03:15:02;16.80;99.90
33881;DHT22;20172;47.530;10.256;2023-07-29T03:17:30;16.80;99.90
33881;DHT22;20172;47.530;10.256;2023-07-29T03:20:29;16.80;99.90
33881;DHT22;20172;47.530;10.256;2023-07-29T03:22:56;16.90;99.90
33881;DHT22;20172;47.530;10.256;2023-07-29T03:25:47;16.90;99.90
33881;DHT22;20172;47.530;10.256;2023-07-29T03:28:38;16.90;99.90
33881;DHT22;20172;47.530;10.256;2023-07-29T03:31:08;16.90;99.90
33881;DHT22;20172;47.530;10.256;2023-07-29T03:34:13;17.00;99.90
33881;DHT22;20172;47.530;10.256;2023-07-29T03:36:43;17.00;99.90
33881;DHT22;20172;47.530;10.256;2023-07-29T03:42:58;17.10;99.90
33881;DHT22;20172;47.530;10.256;2023-07-29T03:45:30;17.20;99.90
33881;DHT22;20172;47.530;10.256;2023-07-29T03:48:00;17.20;99.90
33881;DHT22;20172;47.530;10.256;2023-07-29T03:54:12;17.10;99.90
33881;DHT22;20172;47.530;10.256;2023-07-29T03:57:14;16.90;99.90
33881;DHT22;20172;47.530;10.256;2023-07-29T03:59:59;16.90;99.90
33881;DHT22;20172;47.530;10.256;2023-07-29T04:02:43;16.90;99.90
33881;DHT22;20172;47.530;10.256;2023-07-29T04:05:44;16.80;99.90
33881;DHT22;20172;47.530;10.256;2023-07-29T04:08:17;16.90;99.90
33881;DHT22;20172;47.530;10.256;2023-07-29T04:11:25;16.90;99.90
33881;DHT22;20172;47.530;10.256;2023-07-29T04:14:20;17.00;99.90
33881;DHT22;20172;47.530;10.256;2023-07-29T04:17:01;17.10;99.90
33881;DHT22;20172;47.530;10.256;2023-07-29T04:22:30;17.20;99.90
33881;DHT22;20172;47.530;10.256;2023-07-29T04:25:18;17.20;99.90
33881;DHT22;20172;47.530;10.256;2023-07-29T04:28:29;17.20;99.90
33881;DHT22;20172;47.530;10.256;2023-07-29T04:31:35;17.30;99.90
33881;DHT22;20172;47.530;10.256;2023-07-29T04:40:33;17.50;99.90
33881;DHT22;20172;47.530;10.256;2023-07-29T04:46:48;17.40;99.90
33881;DHT22;20172;47.530;10.256;2023-07-29T04:55:54;17.40;99.90
33881;DHT22;20172;47.530;10.256;2023-07-29T04:58:45;17.50;99.90
33881;DHT22;20172;47.530;10.256;2023-07-29T05:01:57;17.50;99.90
33881;DHT22;20172;47.530;10.256;2023-07-29T05:08:04;17.60;99.90
33881;DHT22;20172;47.530;10.256;2023-07-29T05:14:16;17.80;99.90
33881;DHT22;20172;47.530;10.256;2023-07-29T05:17:04;17.80;99.90
33881;DHT22;20172;47.530;10.256;2023-07-29T05:23:04;17.90;99.90
33881;DHT22;20172;47.530;10.256;2023-07-29T05:25:57;17.60;99.90
33881;DHT22;20172;47.530;10.256;2023-07-29T05:31:52;17.50;99.90
33881;DHT22;20172;47.530;10.256;2023-07-29T05:34:41;17.60;99.90
33881;DHT22;20172;47.530;10.256;2023-07-29T05:37:20;17.70;99.90
33881;DHT22;20172;47.530;10.256;2023-07-29T05:46:11;17.90;99.90
33881;DHT22;20172;47.530;10.256;2023-07-29T05:48:40;17.90;99.90
33881;DHT22;20172;47.530;10.256;2023-07-29T05:51:48;17.90;99.90
33881;DHT22;20172;47.530;10.256;2023-07-29T05:54:58;17.80;99.90
33881;DHT22;20172;47.530;10.256;2023-07-29T05:57:57;17.70;99.90
33881;DHT22;20172;47.530;10.256;2023-07-29T06:00:42;17.70;99.90
33881;DHT22;20172;47.530;10.256;2023-07-29T06:06:14;17.60;99.90
33881;DHT22;20172;47.530;10.256;2023-07-29T06:09:16;17.70;99.90
33881;DHT22;20172;47.530;10.256;2023-07-29T06:11:56;17.80;99.90
33881;DHT22;20172;47.530;10.256;2023-07-29T06:21:04;18.40;99.90
33881;DHT22;20172;47.530;10.256;2023-07-29T06:24:11;18.70;99.90
33881;DHT22;20172;47.530;10.256;2023-07-29T06:27:06;18.70;99.90
33881;DHT22;20172;47.530;10.256;2023-07-29T06:30:24;18.80;99.90
33881;DHT22;20172;47.530;10.256;2023-07-29T06:36:21;19.10;99.90
33881;DHT22;20172;47.530;10.256;2023-07-29T06:45:26;19.30;99.90
33881;DHT22;20172;47.530;10.256;2023-07-29T06:48:41;19.40;99.90
33881;DHT22;20172;47.530;10.256;2023-07-29T06:54:26;19.60;99.90
33881;DHT22;20172;47.530;10.256;2023-07-29T07:00:51;19.80;99.90
33881;DHT22;20172;47.530;10.256;2023-07-29T07:13:02;19.70;99.90
33881;DHT22;20172;47.530;10.256;2023-07-29T07:15:47;19.90;99.90
33881;DHT22;20172;47.530;10.256;2023-07-29T07:22:14;20.10;99.90
33881;DHT22;20172;47.530;10.256;2023-07-29T07:27:55;20.20;99.90
33881;DHT22;20172;47.530;10.256;2023-07-29T07:30:45;20.20;99.90
33881;DHT22;20172;47.530;10.256;2023-07-29T07:47:07;20.00;99.90
33881;DHT22;20172;47.530;10.256;2023-07-29T07:53:46;20.10;99.90
33881;DHT22;20172;47.530;10.256;2023-07-29T08:00:13;20.50;99.90
33881;DHT22;20172;47.530;10.256;2023-07-29T08:02:54;20.80;99.90
33881;DHT22;20172;47.530;10.256;2023-07-29T08:05:20;20.90;99.90
33881;DHT22;20172;47.530;10.256;2023-07-29T08:07:58;20.90;99.90
33881;DHT22;20172;47.530;10.256;2023-07-29T08:11:03;21.10;99.90
33881;DHT22;20172;47.530;10.256;2023-07-29T08:13:49;21.20;99.90
33881;DHT22;20172;47.530;10.256;2023-07-29T08:16:16;21.40;99.90
33881;DHT22;20172;47.530;10.256;2023-07-29T08:18:52;21.40;99.90
33881;DHT22;20172;47.530;10.256;2023-07-29T08:21:47;21.40;99.90
33881;DHT22;20172;47.530;10.256;2023-07-29T08:24:31;21.50;99.90
33881;DHT22;20172;47.530;10.256;2023-07-29T08:27:01;21.60;99.90
33881;DHT22;20172;47.530;10.256;2023-07-29T08:29:38;21.80;99.90
33881;DHT22;20172;47.530;10.256;2023-07-29T08:32:04;21.90;99.90
33881;DHT22;20172;47.530;10.256;2023-07-29T08:34:30;22.00;99.90
33881;DHT22;20172;47.530;10.256;2023-07-29T08:37:20;22.00;99.90
33881;DHT22;20172;47.530;10.256;2023-07-29T08:40:26;22.10;99.90
33881;DHT22;20172;47.530;10.256;2023-07-29T08:43:17;22.10;99.90
33881;DHT22;20172;47.530;10.256;2023-07-29T08:46:26;22.20;99.90
33881;DHT22;20172;47.530;10.256;2023-07-29T08:49:28;22.20;99.90
33881;DHT22;20172;47.530;10.256;2023-07-29T08:58:28;22.70;99.90
33881;DHT22;20172;47.530;10.256;2023-07-29T09:01:25;22.90;99.90
33881;DHT22;20172;47.530;10.256;2023-07-29T09:04:13;22.90;99.90
33881;DHT22;20172;47.530;10.256;2023-07-29T09:07:13;23.10;99.90
33881;DHT22;20172;47.530;10.256;2023-07-29T09:16:14;23.60;99.90
33881;DHT22;20172;47.530;10.256;2023-07-29T09:18:40;23.80;99.90
33881;DHT22;20172;47.530;10.256;2023-07-29T09:21:06;23.90;99.90
33881;DHT22;20172;47.530;10.256;2023-07-29T09:23:38;24.20;99.90
33881;DHT22;20172;47.530;10.256;2023-07-29T09:26:11;24.40;99.90
33881;DHT22;20172;47.530;10.256;2023-07-29T09:28:40;24.50;99.90
33881;DHT22;20172;47.530;10.256;2023-07-29T09:31:07;24.60;99.90
33881;DHT22;20172;47.530;10.256;2023-07-29T09:36:39;24.90;99.90
33881;DHT22;20172;47.530;10.256;2023-07-29T09:39:27;25.10;99.90
33881;DHT22;20172;47.530;10.256;2023-07-29T09:41:58;25.20;99.90
33881;DHT22;20172;47.530;10.256;2023-07-29T09:44:35;25.40;99.90
33881;DHT22;20172;47.530;10.256;2023-07-29T09:47:20;25.60;99.90
33881;DHT22;20172;47.530;10.256;2023-07-29T09:50:05;25.80;99.90
33881;DHT22;20172;47.530;10.256;2023-07-29T09:52:31;25.80;99.90
33881;DHT22;20172;47.530;10.256;2023-07-29T09:54:59;25.80;99.90
33881;DHT22;20172;47.530;10.256;2023-07-29T09:57:24;25.80;99.90
33881;DHT22;20172;47.530;10.256;2023-07-29T09:59:55;25.70;99.90
33881;DHT22;20172;47.530;10.256;2023-07-29T10:02:22;25.80;99.90
33881;DHT22;20172;47.530;10.256;2023-07-29T10:04:48;25.90;99.90
33881;DHT22;20172;47.530;10.256;2023-07-29T10:07:14;26.00;99.90
33881;DHT22;20172;47.530;10.256;2023-07-29T10:09:44;26.10;99.90
33881;DHT22;20172;47.530;10.256;2023-07-29T10:12:20;26.30;99.90
33881;DHT22;20172;47.530;10.256;2023-07-29T10:14:47;26.40;99.90
33881;DHT22;20172;47.530;10.256;2023-07-29T10:17:14;26.70;99.90
33881;DHT22;20172;47.530;10.256;2023-07-29T10:19:44;26.90;99.90
33881;DHT22;20172;47.530;10.256;2023-07-29T10:22:10;27.00;99.90
33881;DHT22;20172;47.530;10.256;2023-07-29T10:24:39;27.20;99.90
33881;DHT22;20172;47.530;10.256;2023-07-29T10:27:10;27.20;99.90
33881;DHT22;20172;47.530;10.256;2023-07-29T10:29:40;26.90;99.90
33881;DHT22;20172;47.530;10.256;2023-07-29T10:32:08;26.60;99.90
33881;DHT22;20172;47.530;10.256;2023-07-29T10:34:41;26.60;99.90
33881;DHT22;20172;47.530;10.256;2023-07-29T10:37:27;26.90;99.90
33881;DHT22;20172;47.530;10.256;2023-07-29T10:40:37;27.30;99.90
33881;DHT22;20172;47.530;10.256;2023-07-29T10:43:12;27.60;99.90
33881;DHT22;20172;47.530;10.256;2023-07-29T10:45:43;27.80;99.90
33881;DHT22;20172;47.530;10.256;2023-07-29T10:48:58;28.00;99.90
33881;DHT22;20172;47.530;10.256;2023-07-29T10:51:40;28.10;99.90
33881;DHT22;20172;47.530;10.256;2023-07-29T11:00:18;28.10;99.90
33881;DHT22;20172;47.530;10.256;2023-07-29T11:02:46;28.20;99.90
33881;DHT22;20172;47.530;10.256;2023-07-29T11:05:17;28.10;99.90
33881;DHT22;20172;47.530;10.256;2023-07-29T11:07:43;27.80;99.90
33881;DHT22;20172;47.530;10.256;2023-07-29T11:10:14;27.40;99.90
33881;DHT22;20172;47.530;10.256;2023-07-29T11:12:51;27.30;99.90
33881;DHT22;20172;47.530;10.256;2023-07-29T11:15:27;27.20;99.90
33881;DHT22;20172;47.530;10.256;2023-07-29T11:18:01;27.20;99.90
33881;DHT22;20172;47.530;10.256;2023-07-29T11:20:29;27.10;99.90
33881;DHT22;20172;47.530;10.256;2023-07-29T11:23:09;27.20;99.90
33881;DHT22;20172;47.530;10.256;2023-07-29T11:25:36;27.00;99.90
33881;DHT22;20172;47.530;10.256;2023-07-29T11:28:11;27.00;99.90
33881;DHT22;20172;47.530;10.256;2023-07-29T11:30:40;27.30;99.90
33881;DHT22;20172;47.530;10.256;2023-07-29T11:36:20;27.70;99.90
33881;DHT22;20172;47.530;10.256;2023-07-29T11:38:54;28.00;99.90
33881;DHT22;20172;47.530;10.256;2023-07-29T11:41:22;28.20;99.90
33881;DHT22;20172;47.530;10.256;2023-07-29T11:43:50;27.90;99.90
33881;DHT22;20172;47.530;10.256;2023-07-29T11:49:32;27.80;99.90
33881;DHT22;20172;47.530;10.256;2023-07-29T11:52:02;28.00;99.90
33881;DHT22;20172;47.530;10.256;2023-07-29T11:54:57;28.20;99.90
33881;DHT22;20172;47.530;10.256;2023-07-29T11:57:25;28.40;99.90
33881;DHT22;20172;47.530;10.256;2023-07-29T11:59:56;28.40;99.90
33881;DHT22;20172;47.530;10.256;2023-07-29T12:02:30;28.20;99.90
33881;DHT22;20172;47.530;10.256;2023-07-29T12:05:03;28.20;99.90
33881;DHT22;20172;47.530;10.256;2023-07-29T12:07:30;28.20;99.90
33881;DHT22;20172;47.530;10.256;2023-07-29T12:10:16;28.30;99.90
33881;DHT22;20172;47.530;10.256;2023-07-29T12:18:36;29.30;99.90
33881;DHT22;20172;47.530;10.256;2023-07-29T12:21:02;29.20;99.90
33881;DHT22;20172;47.530;10.256;2023-07-29T12:23:28;29.50;99.90
33881;DHT22;20172;47.530;10.256;2023-07-29T12:25:57;29.70;99.90
33881;DHT22;20172;47.530;10.256;2023-07-29T12:28:23;29.70;99.90
33881;DHT22;20172;47.530;10.256;2023-07-29T12:30:53;29.50;99.90
33881;DHT22;20172;47.530;10.256;2023-07-29T12:35:56;29.00;99.90
33881;DHT22;20172;47.530;10.256;2023-07-29T12:38:22;28.60;99.90
33881;DHT22;20172;47.530;10.256;2023-07-29T12:40:48;28.20;99.90
33881;DHT22;20172;47.530;10.256;2023-07-29T12:43:13;27.90;99.90
33881;DHT22;20172;47.530;10.256;2023-07-29T12:45:45;27.60;99.90
33881;DHT22;20172;47.530;10.256;2023-07-29T12:48:14;27.40;99.90
33881;DHT22;20172;47.530;10.256;2023-07-29T12:50:43;27.00;99.90
33881;DHT22;20172;47.530;10.256;2023-07-29T12:53:10;26.80;99.90
33881;DHT22;20172;47.530;10.256;2023-07-29T12:55:45;26.50;99.90
33881;DHT22;20172;47.530;10.256;2023-07-29T12:58:16;26.30;99.90
33881;DHT22;20172;47.530;10.256;2023-07-29T13:00:45;26.00;99.90
33881;DHT22;20172;47.530;10.256;2023-07-29T13:03:13;25.90;99.90
33881;DHT22;20172;47.530;10.256;2023-07-29T13:05:42;25.60;99.90
33881;DHT22;20172;47.530;10.256;2023-07-29T13:08:17;25.50;99.90
33881;DHT22;20172;47.530;10.256;2023-07-29T13:10:44;25.30;99.90
33881;DHT22;20172;47.530;10.256;2023-07-29T13:13:10;25.10;99.90
33881;DHT22;20172;47.530;10.256;2023-07-29T13:15:38;24.80;99.90
33881;DHT22;20172;47.530;10.256;2023-07-29T13:18:08;24.70;99.90
33881;DHT22;20172;47.530;10.256;2023-07-29T13:20:34;24.50;99.90
33881;DHT22;20172;47.530;10.256;2023-07-29T13:23:04;24.40;99.90
33881;DHT22;20172;47.530;10.256;2023-07-29T13:25:30;24.20;99.90
33881;DHT22;20172;47.530;10.256;2023-07-29T13:28:04;24.00;99.90
33881;DHT22;20172;47.530;10.256;2023-07-29T13:30:34;23.80;99.90
33881;DHT22;20172;47.530;10.256;2023-07-29T13:33:01;23.60;99.90
33881;DHT22;20172;47.530;10.256;2023-07-29T13:35:27;23.40;99.90
33881;DHT22;20172;47.530;10.256;2023-07-29T13:37:56;23.30;99.90
33881;DHT22;20172;47.530;10.256;2023-07-29T13:40:22;23.20;99.90
33881;DHT22;20172;47.530;10.256;2023-07-29T13:42:47;23.10;99.90
33881;DHT22;20172;47.530;10.256;2023-07-29T13:45:15;22.90;99.90
33881;DHT22;20172;47.530;10.256;2023-07-29T13:47:45;22.70;99.90
33881;DHT22;20172;47.530;10.256;2023-07-29T13:50:10;22.50;99.90
33881;DHT22;20172;47.530;10.256;2023-07-29T13:52:39;22.10;99.90
33881;DHT22;20172;47.530;10.256;2023-07-29T13:55:07;21.80;99.90
33881;DHT22;20172;47.530;10.256;2023-07-29T13:57:36;21.50;99.90
33881;DHT22;20172;47.530;10.256;2023-07-29T14:00:02;21.20;99.90
33881;DHT22;20172;47.530;10.256;2023-07-29T14:02:40;21.00;99.90
33881;DHT22;20172;47.530;10.256;2023-07-29T14:05:51;20.90;99.90
33881;DHT22;20172;47.530;10.256;2023-07-29T14:08:55;20.90;99.90
33881;DHT22;20172;47.530;10.256;2023-07-29T14:11:33;20.70;99.90
33881;DHT22;20172;47.530;10.256;2023-07-29T14:14:10;20.70;99.90
33881;DHT22;20172;47.530;10.256;2023-07-29T14:16:48;20.60;99.90
33881;DHT22;20172;47.530;10.256;2023-07-29T14:29:20;20.70;99.90
33881;DHT22;20172;47.530;10.256;2023-07-29T14:31:47;20.50;99.90
33881;DHT22;20172;47.530;10.256;2023-07-29T14:34:14;20.50;99.90
33881;DHT22;20172;47.530;10.256;2023-07-29T14:36:46;20.40;99.90
33881;DHT22;20172;47.530;10.256;2023-07-29T14:39:12;20.30;99.90
33881;DHT22;20172;47.530;10.256;2023-07-29T14:41:38;20.20;99.90
33881;DHT22;20172;47.530;10.256;2023-07-29T14:44:04;20.10;99.90
33881;DHT22;20172;47.530;10.256;2023-07-29T14:46:33;19.90;99.90
33881;DHT22;20172;47.530;10.256;2023-07-29T14:49:19;19.90;99.90
33881;DHT22;20172;47.530;10.256;2023-07-29T14:51:51;19.80;99.90
33881;DHT22;20172;47.530;10.256;2023-07-29T14:54:23;19.70;99.90
33881;DHT22;20172;47.530;10.256;2023-07-29T14:57:16;19.50;99.90
33881;DHT22;20172;47.530;10.256;2023-07-29T15:00:12;19.40;99.90
33881;DHT22;20172;47.530;10.256;2023-07-29T15:02:43;19.30;99.90
33881;DHT22;20172;47.530;10.256;2023-07-29T15:05:32;19.30;99.90
33881;DHT22;20172;47.530;10.256;2023-07-29T15:08:02;19.30;99.90
33881;DHT22;20172;47.530;10.256;2023-07-29T15:10:38;19.40;99.90
33881;DHT22;20172;47.530;10.256;2023-07-29T15:13:13;19.40;99.90
33881;DHT22;20172;47.530;10.256;2023-07-29T15:16:01;19.50;99.90
33881;DHT22;20172;47.530;10.256;2023-07-29T15:18:37;19.50;99.90
33881;DHT22;20172;47.530;10.256;2023-07-29T15:24:45;19.30;99.90
33881;DHT22;20172;47.530;10.256;2023-07-29T15:27:35;19.20;99.90
33881;DHT22;20172;47.530;10.256;2023-07-29T15:30:23;19.10;99.90
33881;DHT22;20172;47.530;10.256;2023-07-29T15:32:55;19.00;99.90
33881;DHT22;20172;47.530;10.256;2023-07-29T15:35:24;18.90;99.90
33881;DHT22;20172;47.530;10.256;2023-07-29T15:37:49;18.90;99.90
33881;DHT22;20172;47.530;10.256;2023-07-29T15:40:15;18.80;99.90
33881;DHT22;20172;47.530;10.256;2023-07-29T15:42:44;18.80;99.90
33881;DHT22;20172;47.530;10.256;2023-07-29T15:45:13;18.80;99.90
33881;DHT22;20172;47.530;10.256;2023-07-29T15:47:38;18.70;99.90
33881;DHT22;20172;47.530;10.256;2023-07-29T15:50:05;18.70;99.90
33881;DHT22;20172;47.530;10.256;2023-07-29T15:52:34;18.60;99.90
33881;DHT22;20172;47.530;10.256;2023-07-29T15:54:59;18.50;99.90
33881;DHT22;20172;47.530;10.256;2023-07-29T15:57:26;18.40;99.90
33881;DHT22;20172;47.530;10.256;2023-07-29T15:59:52;18.40;99.90
33881;DHT22;20172;47.530;10.256;2023-07-29T16:02:17;18.30;99.90
33881;DHT22;20172;47.530;10.256;2023-07-29T16:04:43;18.30;99.90
33881;DHT22;20172;47.530;10.256;2023-07-29T16:07:08;18.30;99.90
33881;DHT22;20172;47.530;10.256;2023-07-29T16:09:34;18.40;99.90
33881;DHT22;20172;47.530;10.256;2023-07-29T16:11:59;18.40;99.90
33881;DHT22;20172;47.530;10.256;2023-07-29T16:14:27;18.40;99.90
33881;DHT22;20172;47.530;10.256;2023-07-29T16:16:52;18.50;99.90
33881;DHT22;20172;47.530;10.256;2023-07-29T16:19:22;18.50;99.90
33881;DHT22;20172;47.530;10.256;2023-07-29T16:21:57;18.60;99.90
33881;DHT22;20172;47.530;10.256;2023-07-29T16:24:34;18.60;99.90
33881;DHT22;20172;47.530;10.256;2023-07-29T16:27:31;18.60;99.90
33881;DHT22;20172;47.530;10.256;2023-07-29T16:30:17;18.60;99.90
33881;DHT22;20172;47.530;10.256;2023-07-29T16:32:44;18.50;99.90
33881;DHT22;20172;47.530;10.256;2023-07-29T16:35:10;18.50;99.90
33881;DHT22;20172;47.530;10.256;2023-07-29T16:37:37;18.50;99.90
33881;DHT22;20172;47.530;10.256;2023-07-29T16:40:08;18.50;99.90
33881;DHT22;20172;47.530;10.256;2023-07-29T16:42:40;18.60;99.90
33881;DHT22;20172;47.530;10.256;2023-07-29T16:45:24;18.70;99.90
33881;DHT22;20172;47.530;10.256;2023-07-29T16:48:08;18.80;99.90
33881;DHT22;20172;47.530;10.256;2023-07-29T16:50:43;18.80;99.90
33881;DHT22;20172;47.530;10.256;2023-07-29T16:53:38;18.90;99.90
33881;DHT22;20172;47.530;10.256;2023-07-29T16:56:14;18.80;99.90
33881;DHT22;20172;47.530;10.256;2023-07-29T16:58:45;18.80;99.90
33881;DHT22;20172;47.530;10.256;2023-07-29T17:01:39;18.80;99.90
33881;DHT22;20172;47.530;10.256;2023-07-29T17:07:23;18.80;99.90
33881;DHT22;20172;47.530;10.256;2023-07-29T17:10:10;18.70;99.90
33881;DHT22;20172;47.530;10.256;2023-07-29T17:13:04;18.50;99.90
33881;DHT22;20172;47.530;10.256;2023-07-29T17:15:41;18.50;99.90
33881;DHT22;20172;47.530;10.256;2023-07-29T17:18:11;18.50;99.90
33881;DHT22;20172;47.530;10.256;2023-07-29T17:20:49;18.50;99.90
33881;DHT22;20172;47.530;10.256;2023-07-29T17:23:21;18.40;99.90
33881;DHT22;20172;47.530;10.256;2023-07-29T17:25:53;18.40;99.90
33881;DHT22;20172;47.530;10.256;2023-07-29T17:28:43;18.50;99.90
33881;DHT22;20172;47.530;10.256;2023-07-29T17:31:15;18.50;99.90
33881;DHT22;20172;47.530;10.256;2023-07-29T17:33:43;18.50;99.90
33881;DHT22;20172;47.530;10.256;2023-07-29T17:36:15;18.50;99.90
33881;DHT22;20172;47.530;10.256;2023-07-29T17:42:15;18.60;99.90
33881;DHT22;20172;47.530;10.256;2023-07-29T17:45:11;18.50;99.90
33881;DHT22;20172;47.530;10.256;2023-07-29T17:47:58;18.50;99.90
33881;DHT22;20172;47.530;10.256;2023-07-29T17:50:28;18.50;99.90
33881;DHT22;20172;47.530;10.256;2023-07-29T17:53:20;18.50;99.90
33881;DHT22;20172;47.530;10.256;2023-07-29T17:56:11;18.50;99.90
33881;DHT22;20172;47.530;10.256;2023-07-29T17:58:41;18.50;99.90
33881;DHT22;20172;47.530;10.256;2023-07-29T18:01:07;18.50;99.90
33881;DHT22;20172;47.530;10.256;2023-07-29T18:03:39;18.40;99.90
33881;DHT22;20172;47.530;10.256;2023-07-29T18:06:21;18.40;99.90
33881;DHT22;20172;47.530;10.256;2023-07-29T18:08:50;18.50;99.90
33881;DHT22;20172;47.530;10.256;2023-07-29T18:11:31;18.50;99.90
33881;DHT22;20172;47.530;10.256;2023-07-29T18:14:37;18.60;99.90
33881;DHT22;20172;47.530;10.256;2023-07-29T18:17:03;18.60;99.90
33881;DHT22;20172;47.530;10.256;2023-07-29T18:19:37;18.70;99.90
33881;DHT22;20172;47.530;10.256;2023-07-29T18:22:06;18.70;99.90
33881;DHT22;20172;47.530;10.256;2023-07-29T18:24:53;18.70;99.90
33881;DHT22;20172;47.530;10.256;2023-07-29T18:27:26;18.80;99.90
33881;DHT22;20172;47.530;10.256;2023-07-29T18:29:56;18.80;99.90
33881;DHT22;20172;47.530;10.256;2023-07-29T18:32:23;18.80;99.90
33881;DHT22;20172;47.530;10.256;2023-07-29T18:34:57;18.70;99.90
33881;DHT22;20172;47.530;10.256;2023-07-29T18:37:34;18.70;99.90
33881;DHT22;20172;47.530;10.256;2023-07-29T18:42:38;18.60;99.90
33881;DHT22;20172;47.530;10.256;2023-07-29T18:45:15;18.50;99.90
33881;DHT22;20172;47.530;10.256;2023-07-29T18:47:52;18.50;99.90
33881;DHT22;20172;47.530;10.256;2023-07-29T18:50:28;18.50;99.90
33881;DHT22;20172;47.530;10.256;2023-07-29T18:53:02;18.50;99.90
33881;DHT22;20172;47.530;10.256;2023-07-29T18:55:30;18.50;99.90
33881;DHT22;20172;47.530;10.256;2023-07-29T19:00:30;18.40;99.90
33881;DHT22;20172;47.530;10.256;2023-07-29T19:02:58;18.40;99.90
33881;DHT22;20172;47.530;10.256;2023-07-29T19:05:24;18.40;99.90
33881;DHT22;20172;47.530;10.256;2023-07-29T19:07:58;18.40;99.90
33881;DHT22;20172;47.530;10.256;2023-07-29T19:13:14;18.40;99.90